createdAt,value
2019-02-28T00:02:09.138Z,95.90
2019-02-28T00:04:39.862Z,96.00
2019-02-28T00:07:10.200Z,96.00
2019-02-28T00:09:41.364Z,95.90
2019-02-28T00:12:13.640Z,96.00
2019-02-28T00:14:45.607Z,96.00
2019-02-28T00:17:16.052Z,96.00
2019-02-28T00:19:46.380Z,95.90
2019-02-28T00:22:16.724Z,96.00
2019-02-28T00:24:47.039Z,96.10
2019-02-28T00:27:21.011Z,96.10
2019-02-28T00:29:49.326Z,96.30
2019-02-28T00:32:21.376Z,96.00
2019-02-28T00:34:51.680Z,96.10
2019-02-28T00:37:24.706Z,96.10
2019-02-28T00:39:54.003Z,96.50
2019-02-28T00:42:25.294Z,96.20
2019-02-28T00:44:55.621Z,96.30
2019-02-28T00:47:25.988Z,96.60
2019-02-28T00:49:56.698Z,96.30
2019-02-28T00:52:27.149Z,96.20
2019-02-28T00:54:58.528Z,96.30
2019-02-28T00:57:28.864Z,96.30
2019-02-28T01:00:02.302Z,96.30
2019-02-28T01:02:32.632Z,96.20
2019-02-28T01:05:05.044Z,96.20
2019-02-28T01:07:34.970Z,96.20
2019-02-28T01:10:08.264Z,96.20
2019-02-28T01:12:38.658Z,96.10
2019-02-28T01:15:10.764Z,96.10
2019-02-28T01:17:41.180Z,96.10
2019-02-28T01:20:16.083Z,96.10
2019-02-28T01:22:44.804Z,96.00
2019-02-28T01:25:15.456Z,96.00
2019-02-28T01:27:45.798Z,95.90
2019-02-28T01:30:16.220Z,95.80
2019-02-28T01:32:49.798Z,95.70
2019-02-28T01:35:18.606Z,95.60
2019-02-28T01:37:48.996Z,95.90
2019-02-28T01:40:21.366Z,95.60
2019-02-28T01:42:54.926Z,95.40
2019-02-28T01:45:23.662Z,95.40
2019-02-28T01:47:54.004Z,95.30
2019-02-28T01:50:24.335Z,95.20
2019-02-28T01:52:54.798Z,95.20
2019-02-28T01:55:25.103Z,95.10
2019-02-28T01:57:55.424Z,95.00
2019-02-28T02:00:25.851Z,94.80
2019-02-28T02:02:56.568Z,94.70
2019-02-28T02:05:26.928Z,94.40
2019-02-28T02:07:57.230Z,94.30
2019-02-28T02:10:27.654Z,94.20
2019-02-28T02:12:57.996Z,94.10
2019-02-28T02:15:28.326Z,94.10
2019-02-28T02:17:58.702Z,94.00
2019-02-28T02:20:29.008Z,93.90
2019-02-28T02:22:59.405Z,93.80
2019-02-28T02:25:29.732Z,93.90
2019-02-28T02:28:00.064Z,93.80
2019-02-28T02:30:30.360Z,93.70
2019-02-28T02:33:00.669Z,93.70
2019-02-28T02:35:31.028Z,93.60
2019-02-28T02:38:03.684Z,93.40
2019-02-28T02:40:33.378Z,93.30
2019-02-28T02:43:03.715Z,93.30
2019-02-28T02:45:41.906Z,93.40
2019-02-28T02:48:06.890Z,93.30
2019-02-28T02:50:37.317Z,93.30
2019-02-28T02:53:07.661Z,93.40
2019-02-28T02:55:37.995Z,93.40
2019-02-28T02:58:08.362Z,93.40
2019-02-28T03:00:38.761Z,93.70
2019-02-28T03:03:09.113Z,93.40
2019-02-28T03:05:39.478Z,93.40
2019-02-28T03:08:09.824Z,93.40
2019-02-28T03:10:43.551Z,93.40
2019-02-28T03:13:13.902Z,93.40
2019-02-28T03:15:44.273Z,93.30
2019-02-28T03:18:15.012Z,93.20
2019-02-28T03:20:45.342Z,93.20
2019-02-28T03:23:16.585Z,93.00
2019-02-28T03:25:46.888Z,93.00
2019-02-28T03:28:17.211Z,93.00
2019-02-28T03:30:47.540Z,93.00
2019-02-28T03:33:27.183Z,92.90
2019-02-28T03:35:49.904Z,92.80
2019-02-28T03:38:20.273Z,92.80
2019-02-28T03:40:51.167Z,92.60
2019-02-28T03:43:21.803Z,92.50
2019-02-28T03:45:52.168Z,92.40
2019-02-28T03:48:22.515Z,92.40
2019-02-28T03:50:55.349Z,92.10
2019-02-28T03:53:24.783Z,92.10
2019-02-28T03:55:55.090Z,92.00
2019-02-28T03:58:25.417Z,91.90
2019-02-28T04:00:55.746Z,91.80
2019-02-28T04:03:26.085Z,91.60
2019-02-28T04:06:02.904Z,91.60
2019-02-28T04:08:30.356Z,91.30
2019-02-28T04:11:00.744Z,91.30
2019-02-28T04:13:31.048Z,91.30
2019-02-28T04:16:08.708Z,90.90
2019-02-28T04:18:33.352Z,91.00
2019-02-28T04:21:03.833Z,90.90
2019-02-28T04:23:36.163Z,90.70
2019-02-28T04:26:06.259Z,90.70
2019-02-28T04:28:36.597Z,90.60
2019-02-28T04:31:07.016Z,90.50
2019-02-28T04:33:39.045Z,90.50
2019-02-28T04:36:09.359Z,90.50
2019-02-28T04:38:40.759Z,90.40
2019-02-28T04:41:12.706Z,90.30
2019-02-28T04:43:44.398Z,90.30
2019-02-28T04:46:15.808Z,90.20
2019-02-28T04:48:48.422Z,90.00
2019-02-28T04:51:19.324Z,89.80
2019-02-28T04:53:52.647Z,89.70
2019-02-28T04:56:21.623Z,89.50
2019-02-28T04:58:51.908Z,89.40
2019-02-28T05:01:22.228Z,89.10
2019-02-28T05:03:52.891Z,88.90
2019-02-28T05:06:23.222Z,89.00
2019-02-28T05:08:53.543Z,88.80
2019-02-28T05:11:27.431Z,89.40
2019-02-28T05:13:56.968Z,88.50
2019-02-28T05:16:27.308Z,88.30
2019-02-28T05:18:58.250Z,88.20
2019-02-28T05:21:29.538Z,87.70
2019-02-28T05:23:59.905Z,88.00
2019-02-28T05:26:30.222Z,88.30
2019-02-28T05:29:00.569Z,88.00
2019-02-28T05:31:31.002Z,87.90
2019-02-28T05:34:01.321Z,87.40
2019-02-28T05:36:34.606Z,87.30
2019-02-28T05:39:05.168Z,87.10
2019-02-28T05:41:36.762Z,87.10
2019-02-28T05:44:07.259Z,86.90
2019-02-28T05:46:37.762Z,86.20
2019-02-28T05:49:08.687Z,86.00
2019-02-28T05:51:39.401Z,85.80
2019-02-28T05:54:09.778Z,85.60
2019-02-28T05:56:40.147Z,84.50
2019-02-28T05:59:10.486Z,84.80
2019-02-28T06:01:46.572Z,84.50
2019-02-28T06:04:12.839Z,84.40
2019-02-28T06:06:43.530Z,84.30
2019-02-28T06:09:14.831Z,83.60
2019-02-28T06:11:45.247Z,83.10
2019-02-28T06:14:15.578Z,83.10
2019-02-28T06:16:46.809Z,83.10
2019-02-28T06:19:20.217Z,82.70
2019-02-28T06:21:50.108Z,83.00
2019-02-28T06:24:20.440Z,82.20
2019-02-28T06:26:50.800Z,82.00
2019-02-28T06:29:21.137Z,81.80
2019-02-28T06:32:03.121Z,81.40
2019-02-28T06:34:33.469Z,81.60
2019-02-28T06:37:04.521Z,81.30
2019-02-28T06:39:34.890Z,81.00
2019-02-28T06:42:05.211Z,80.70
2019-02-28T06:44:35.553Z,80.10
2019-02-28T06:47:05.949Z,79.80
2019-02-28T06:49:40.963Z,79.20
2019-02-28T06:52:08.436Z,79.00
2019-02-28T06:54:39.901Z,78.90
2019-02-28T06:57:10.808Z,78.70
2019-02-28T06:59:41.238Z,78.50
2019-02-28T07:02:11.568Z,78.00
2019-02-28T07:04:41.963Z,78.40
2019-02-28T07:07:13.675Z,78.50
2019-02-28T07:09:44.147Z,78.20
2019-02-28T07:12:15.513Z,77.80
2019-02-28T07:14:49.270Z,77.60
2019-02-28T07:17:17.886Z,77.70
2019-02-28T07:19:48.208Z,77.30
2019-02-28T07:22:19.667Z,77.30
2019-02-28T07:24:50.743Z,77.00
2019-02-28T07:27:23.398Z,76.90
2019-02-28T07:29:53.461Z,77.00
2019-02-28T07:32:35.565Z,76.30
2019-02-28T07:35:06.974Z,75.90
2019-02-28T07:37:37.350Z,75.50
2019-02-28T07:40:09.096Z,75.00
2019-02-28T07:42:40.688Z,73.50
2019-02-28T07:45:12.203Z,73.60
2019-02-28T07:47:42.772Z,73.30
2019-02-28T07:50:13.205Z,72.70
2019-02-28T07:52:43.709Z,72.60
2019-02-28T07:55:14.070Z,72.40
2019-02-28T07:57:44.476Z,72.50
2019-02-28T08:00:18.433Z,72.10
2019-02-28T08:02:49.142Z,71.80
2019-02-28T08:05:19.565Z,71.50
2019-02-28T08:07:52.601Z,71.40
2019-02-28T08:10:22.450Z,70.80
2019-02-28T08:12:54.106Z,70.20
2019-02-28T08:15:24.596Z,69.30
2019-02-28T08:17:54.935Z,69.10
2019-02-28T08:20:25.639Z,69.10
2019-02-28T08:22:57.671Z,68.70
2019-02-28T08:25:28.176Z,68.20
2019-02-28T08:27:59.669Z,67.60
2019-02-28T08:30:30.540Z,67.90
2019-02-28T08:33:00.878Z,67.80
2019-02-28T08:35:34.889Z,67.80
2019-02-28T08:38:03.242Z,67.20
2019-02-28T08:40:33.734Z,66.20
2019-02-28T08:43:06.124Z,65.90
2019-02-28T08:45:36.536Z,65.70
2019-02-28T08:48:06.856Z,64.80
2019-02-28T08:50:37.360Z,64.40
2019-02-28T08:53:12.435Z,64.40
2019-02-28T08:55:44.367Z,62.50
2019-02-28T08:58:15.198Z,57.70
2019-02-28T09:00:45.555Z,54.60
2019-02-28T09:03:17.087Z,49.60
2019-02-28T09:05:47.416Z,46.70
2019-02-28T09:08:18.860Z,43.60
2019-02-28T09:10:49.202Z,42.30
2019-02-28T09:13:20.704Z,40.40
2019-02-28T09:15:51.776Z,37.90
2019-02-28T09:18:25.038Z,37.20
2019-02-28T09:20:55.410Z,34.70
2019-02-28T09:23:25.861Z,34.20
2019-02-28T09:25:56.603Z,32.90
2019-02-28T09:28:27.928Z,32.10
2019-02-28T09:31:01.427Z,31.90
2019-02-28T09:33:30.488Z,31.40
2019-02-28T09:36:00.896Z,30.00
2019-02-28T09:38:31.271Z,29.60
2019-02-28T09:41:04.583Z,29.60
2019-02-28T09:43:34.409Z,28.80
2019-02-28T09:46:05.374Z,28.90
2019-02-28T09:48:37.120Z,28.90
2019-02-28T09:51:07.706Z,27.90
2019-02-28T09:53:39.206Z,28.00
2019-02-28T09:56:13.064Z,28.10
2019-02-28T09:58:43.504Z,27.70
2019-02-28T10:01:15.119Z,27.70
2019-02-28T10:03:45.577Z,27.60
2019-02-28T10:06:16.377Z,27.50
2019-02-28T10:08:47.401Z,27.40
2019-02-28T10:11:17.806Z,27.20
2019-02-28T10:13:49.616Z,27.70
2019-02-28T10:16:20.725Z,27.70
2019-02-28T10:18:51.140Z,27.80
2019-02-28T10:21:21.460Z,28.20
2019-02-28T10:23:53.354Z,28.50
2019-02-28T10:26:23.830Z,28.10
2019-02-28T10:28:54.207Z,28.30
2019-02-28T10:31:35.174Z,28.90
2019-02-28T10:33:56.879Z,29.10
2019-02-28T10:36:27.208Z,29.10
2019-02-28T10:38:57.616Z,28.90
2019-02-28T10:41:31.125Z,29.40
2019-02-28T10:44:00.025Z,29.40
2019-02-28T10:46:30.889Z,30.20
2019-02-28T10:49:01.269Z,30.20
2019-02-28T10:51:31.718Z,31.20
2019-02-28T10:54:02.086Z,30.80
2019-02-28T10:56:32.711Z,31.10
2019-02-28T10:59:04.092Z,31.30
2019-02-28T11:01:35.816Z,31.40
2019-02-28T11:04:07.457Z,32.00
2019-02-28T11:06:41.680Z,32.90
2019-02-28T11:09:21.404Z,33.40
2019-02-28T11:11:51.384Z,33.70
2019-02-28T11:14:22.019Z,33.90
2019-02-28T11:16:52.403Z,34.10
2019-02-28T11:19:22.830Z,34.60
2019-02-28T11:21:53.289Z,35.20
2019-02-28T11:24:26.127Z,35.50
2019-02-28T11:26:55.875Z,35.80
2019-02-28T11:29:26.227Z,36.30
2019-02-28T11:31:56.737Z,37.10
2019-02-28T11:34:27.123Z,38.00
2019-02-28T11:36:57.490Z,38.90
2019-02-28T11:39:30.523Z,39.90
2019-02-28T11:42:00.768Z,41.50
2019-02-28T11:44:31.168Z,41.40
2019-02-28T11:47:01.544Z,42.10
2019-02-28T11:49:31.900Z,42.70
2019-02-28T11:52:02.304Z,43.30
2019-02-28T11:54:32.644Z,43.40
2019-02-28T11:57:06.637Z,43.90
2019-02-28T11:59:35.656Z,44.70
2019-02-28T12:02:06.109Z,45.50
2019-02-28T12:04:37.496Z,46.20
2019-02-28T12:07:08.408Z,46.60
2019-02-28T12:09:38.739Z,46.80
2019-02-28T12:12:10.385Z,46.60
2019-02-28T12:14:41.064Z,47.10
2019-02-28T12:17:11.434Z,47.50
2019-02-28T12:19:41.742Z,47.60
2019-02-28T12:22:12.756Z,47.90
2019-02-28T12:24:43.125Z,48.30
2019-02-28T12:27:13.525Z,48.70
2019-02-28T12:29:45.685Z,48.30
2019-02-28T12:32:15.902Z,48.20
2019-02-28T12:34:46.243Z,49.00
2019-02-28T12:37:16.659Z,49.20
2019-02-28T12:39:47.007Z,49.60
2019-02-28T12:42:17.369Z,49.80
2019-02-28T12:44:49.032Z,50.20
2019-02-28T12:47:20.199Z,50.40
2019-02-28T12:49:50.563Z,50.20
2019-02-28T12:52:21.001Z,50.00
2019-02-28T12:54:51.436Z,49.80
2019-02-28T12:57:22.371Z,50.30
2019-02-28T12:59:53.383Z,49.60
2019-02-28T13:02:23.792Z,49.60
2019-02-28T13:04:54.164Z,49.20
2019-02-28T13:07:24.508Z,49.50
2019-02-28T13:09:54.854Z,49.60
2019-02-28T13:12:25.197Z,49.50
2019-02-28T13:14:55.550Z,49.60
2019-02-28T13:17:28.328Z,49.60
2019-02-28T13:19:57.910Z,49.80
2019-02-28T13:22:28.611Z,49.90
2019-02-28T13:24:58.959Z,49.80
2019-02-28T13:27:29.313Z,50.10
2019-02-28T13:29:59.643Z,50.10
2019-02-28T13:32:30.088Z,50.20
2019-02-28T13:35:03.114Z,50.30
2019-02-28T13:37:32.842Z,51.10
2019-02-28T13:40:04.311Z,51.40
2019-02-28T13:42:36.213Z,51.80
2019-02-28T13:45:13.406Z,51.50
2019-02-28T13:47:42.127Z,52.30
2019-02-28T13:50:17.423Z,52.60
2019-02-28T13:52:47.917Z,52.90
2019-02-28T13:55:18.899Z,53.20
2019-02-28T13:57:50.478Z,53.50
2019-02-28T14:00:22.947Z,53.80
2019-02-28T14:02:58.580Z,54.30
2019-02-28T14:05:28.941Z,54.40
2019-02-28T14:07:59.340Z,54.50
2019-02-28T14:10:33.517Z,54.70
2019-02-28T14:13:02.218Z,54.90
2019-02-28T14:15:35.258Z,55.30
2019-02-28T14:18:07.503Z,56.00
2019-02-28T14:20:38.429Z,56.40
2019-02-28T14:23:09.164Z,56.70
2019-02-28T14:25:41.016Z,57.00
2019-02-28T14:28:11.724Z,57.00
2019-02-28T14:30:42.260Z,57.10
2019-02-28T14:33:12.682Z,57.20
2019-02-28T14:35:43.064Z,57.30
2019-02-28T14:38:14.602Z,57.60
2019-02-28T14:40:45.256Z,57.50
2019-02-28T14:43:15.647Z,57.50
2019-02-28T14:45:46.033Z,57.60
2019-02-28T14:48:17.177Z,57.90
2019-02-28T14:50:50.570Z,58.30
2019-02-28T14:53:19.558Z,58.70
2019-02-28T14:55:49.958Z,58.30
2019-02-28T14:58:21.293Z,57.60
2019-02-28T15:00:52.716Z,58.20
2019-02-28T15:03:23.211Z,58.80
2019-02-28T15:05:55.482Z,58.80
2019-02-28T15:08:27.132Z,57.90
2019-02-28T15:10:57.653Z,58.10
2019-02-28T15:13:30.478Z,57.10
2019-02-28T15:16:00.075Z,57.00
2019-02-28T15:18:30.415Z,57.40
2019-02-28T15:21:01.202Z,57.10
2019-02-28T15:23:34.364Z,57.40
2019-02-28T15:26:03.730Z,57.50
2019-02-28T15:28:35.204Z,57.70
2019-02-28T15:31:05.852Z,57.90
2019-02-28T15:33:37.629Z,58.20
2019-02-28T15:36:08.021Z,58.80
2019-02-28T15:38:38.453Z,59.20
2019-02-28T15:41:08.794Z,59.40
2019-02-28T15:43:39.177Z,59.80
2019-02-28T15:46:11.965Z,60.20
2019-02-28T15:48:41.782Z,61.30
2019-02-28T15:51:13.017Z,61.80
2019-02-28T15:53:43.447Z,62.60
2019-02-28T15:56:19.500Z,63.10
2019-02-28T15:58:45.819Z,63.50
2019-02-28T16:01:16.645Z,64.10
2019-02-28T16:03:48.434Z,64.30
2019-02-28T16:06:19.726Z,64.40
2019-02-28T16:08:51.036Z,64.60
2019-02-28T16:11:21.409Z,65.50
2019-02-28T16:13:51.785Z,65.60
2019-02-28T16:16:24.673Z,66.10
2019-02-28T16:18:54.167Z,66.00
2019-02-28T16:21:26.081Z,66.30
2019-02-28T16:23:56.442Z,66.50
2019-02-28T16:26:26.801Z,66.40
2019-02-28T16:28:57.126Z,66.20
2019-02-28T16:31:27.526Z,66.20
2019-02-28T16:34:08.034Z,66.30
2019-02-28T16:36:29.982Z,66.90
2019-02-28T16:39:00.354Z,67.30
2019-02-28T16:41:33.660Z,68.20
2019-02-28T16:44:02.953Z,68.10
2019-02-28T16:46:33.301Z,68.20
2019-02-28T16:49:07.364Z,68.40
2019-02-28T16:51:38.595Z,68.80
2019-02-28T16:54:09.213Z,69.30
2019-02-28T16:56:39.658Z,70.10
2019-02-28T16:59:10.025Z,70.60
2019-02-28T17:01:40.411Z,71.20
2019-02-28T17:04:13.524Z,71.70
2019-02-28T17:06:42.799Z,71.70
2019-02-28T17:09:30.338Z,71.70
2019-02-28T17:12:27.272Z,71.80
2019-02-28T17:14:57.613Z,72.10
2019-02-28T17:17:49.963Z,72.40
2019-02-28T17:20:20.918Z,72.70
2019-02-28T17:22:51.424Z,73.60
2019-02-28T17:25:22.562Z,74.00
2019-02-28T17:28:01.969Z,74.40
2019-02-28T17:31:03.737Z,75.10
2019-02-28T17:33:34.997Z,75.50
2019-02-28T17:36:08.407Z,75.70
2019-02-28T17:38:38.061Z,76.00
2019-02-28T17:41:08.563Z,76.40
2019-02-28T17:43:39.549Z,76.70
2019-02-28T17:46:11.077Z,77.10
2019-02-28T17:49:11.130Z,77.10
2019-02-28T17:52:18.499Z,77.30
2019-02-28T17:55:08.656Z,77.40
2019-02-28T17:58:11.181Z,77.50
2019-02-28T18:01:06.549Z,77.70
2019-02-28T18:04:39.009Z,78.10
2019-02-28T18:07:48.019Z,78.50
2019-02-28T18:10:48.449Z,78.90
2019-02-28T18:13:52.238Z,79.00
2019-02-28T18:16:54.430Z,79.40
2019-02-28T18:19:56.152Z,79.70
2019-02-28T18:23:13.125Z,79.80
2019-02-28T18:26:39.270Z,79.80
2019-02-28T18:29:31.406Z,80.40
2019-02-28T18:32:02.657Z,80.90
2019-02-28T18:34:35.182Z,81.40
2019-02-28T18:37:05.679Z,81.90
2019-02-28T18:39:36.028Z,82.30
2019-02-28T18:42:06.400Z,82.80
2019-02-28T18:44:37.353Z,83.00
2019-02-28T18:47:09.129Z,83.20
2019-02-28T18:49:39.544Z,83.70
2019-02-28T18:52:09.929Z,83.80
2019-02-28T18:54:41.455Z,83.80
2019-02-28T18:57:11.879Z,83.80
2019-02-28T18:59:42.495Z,84.00
2019-02-28T19:02:12.915Z,84.10
2019-02-28T19:04:43.309Z,84.10
2019-02-28T19:07:13.792Z,84.20
2019-02-28T19:09:44.130Z,84.20
2019-02-28T19:12:14.887Z,84.40
2019-02-28T19:14:45.305Z,84.50
2019-02-28T19:17:15.881Z,84.30
2019-02-28T19:19:46.333Z,84.50
2019-02-28T19:22:16.806Z,84.80
2019-02-28T19:24:48.563Z,84.90
2019-02-28T19:27:18.899Z,85.10
2019-02-28T19:29:49.237Z,84.70
2019-02-28T19:32:19.691Z,85.00
2019-02-28T19:34:50.065Z,84.40
2019-02-28T19:37:20.806Z,80.20
2019-02-28T19:39:51.213Z,72.50
2019-02-28T19:42:21.625Z,69.00
2019-02-28T19:44:52.009Z,65.60
2019-02-28T19:47:23.142Z,64.60
2019-02-28T19:49:53.645Z,65.00
2019-02-28T19:52:24.169Z,64.70
2019-02-28T19:54:55.552Z,64.20
2019-02-28T19:57:25.941Z,64.70
2019-02-28T19:59:56.375Z,64.80
2019-02-28T20:02:26.772Z,64.80
2019-02-28T20:04:57.443Z,64.80
2019-02-28T20:07:27.789Z,65.30
2019-02-28T20:09:58.197Z,65.70
2019-02-28T20:12:31.047Z,66.10
2019-02-28T20:15:01.007Z,66.40
2019-02-28T20:17:31.867Z,66.00
2019-02-28T20:20:02.574Z,65.90
2019-02-28T20:22:33.577Z,65.00
2019-02-28T20:25:04.307Z,64.60
2019-02-28T20:27:35.145Z,64.60
2019-02-28T20:30:06.189Z,64.50
2019-02-28T20:32:36.741Z,63.70
2019-02-28T20:35:07.677Z,63.90
2019-02-28T20:37:38.372Z,63.10
2019-02-28T20:40:10.851Z,63.20
2019-02-28T20:42:41.281Z,63.00
2019-02-28T20:45:12.341Z,63.00
2019-02-28T20:47:44.319Z,63.80
2019-02-28T20:50:18.385Z,63.90
2019-02-28T20:52:48.790Z,64.20
2019-02-28T21:01:57.184Z,64.60
2019-02-28T21:07:39.170Z,65.00
2019-02-28T21:10:10.149Z,65.10
2019-02-28T21:12:42.068Z,65.30
2019-02-28T21:15:12.528Z,65.70
2019-02-28T21:17:43.280Z,65.90
2019-02-28T21:20:14.137Z,66.20
2019-02-28T21:22:44.614Z,66.50
2019-02-28T21:25:15.050Z,66.70
2019-02-28T21:27:46.935Z,67.00
2019-02-28T21:30:19.423Z,67.50
2019-02-28T21:32:49.745Z,67.10
2019-02-28T21:35:20.663Z,67.30
2019-02-28T21:37:51.450Z,67.60
2019-02-28T21:40:22.166Z,68.10
2019-02-28T21:42:54.969Z,68.50
2019-02-28T21:45:25.467Z,68.70
2019-02-28T21:47:55.949Z,69.10
2019-02-28T21:50:26.391Z,69.60
2019-02-28T21:52:56.839Z,70.10
2019-02-28T21:55:28.265Z,70.80
2019-02-28T21:57:59.783Z,71.00
2019-02-28T22:00:30.517Z,71.70
2019-02-28T22:03:01.061Z,72.20
2019-02-28T22:05:31.935Z,72.80
2019-02-28T22:08:02.588Z,73.50
2019-02-28T22:10:33.011Z,74.20
2019-02-28T22:13:03.401Z,75.00
2019-02-28T22:15:34.100Z,75.60
2019-02-28T22:18:04.483Z,76.80
2019-02-28T22:20:36.712Z,78.00
2019-02-28T22:23:06.773Z,78.50
2019-02-28T22:25:37.131Z,80.00
2019-02-28T22:28:07.641Z,81.70
2019-02-28T22:30:56.945Z,82.50
2019-02-28T22:33:58.304Z,84.30
2019-02-28T22:36:32.129Z,86.20
2019-02-28T22:39:02.679Z,86.80
2019-02-28T22:41:34.620Z,88.30
2019-02-28T22:44:05.253Z,90.00
2019-02-28T22:46:35.613Z,90.20
2019-02-28T22:49:06.077Z,90.30
2019-02-28T22:51:36.479Z,90.60
2019-02-28T22:54:06.812Z,91.10
2019-02-28T22:56:37.149Z,91.20
2019-02-28T22:59:13.663Z,91.50
2019-02-28T23:01:45.141Z,91.80
2019-02-28T23:04:16.269Z,92.00
2019-02-28T23:06:46.596Z,92.10
2019-02-28T23:09:16.981Z,92.30
2019-02-28T23:11:47.329Z,92.50
2019-02-28T23:14:17.677Z,92.60
2019-02-28T23:16:48.049Z,92.80
2019-02-28T23:19:18.456Z,92.90
2019-02-28T23:21:48.761Z,93.10
2019-02-28T23:24:19.154Z,93.10
2019-02-28T23:27:20.442Z,93.20
2019-02-28T23:30:31.610Z,93.30
2019-02-28T23:33:08.397Z,93.40
2019-02-28T23:35:40.994Z,93.40
2019-02-28T23:38:12.540Z,93.30
2019-02-28T23:40:42.851Z,93.50
2019-02-28T23:43:13.227Z,93.60
2019-02-28T23:45:44.315Z,93.70
2019-02-28T23:48:15.234Z,93.80
2019-02-28T23:50:45.564Z,94.10
2019-02-28T23:53:15.889Z,94.10
2019-02-28T23:55:46.261Z,94.10
2019-02-28T23:58:16.606Z,94.20
